Time;durP1;ratioP1;P1;durP2;ratioP2;P2;SDS_P1;SDS_P2;PMS_P1;PMS_P2;Temp;Humidity;BMP_temperature;BMP_pressure;BME280_temperature;BME280_humidity;BME280_pressure;Samples;Min_cycle;Max_cycle;Signal;HPM_P1;HPM_P2
2022/11/13 00:01:22;;;;;;;;;45.50;38.00;;;;;12.84;78.64;102017.91;4998557;28;51965;-73
2022/11/13 00:03:48;;;;;;;;;42.33;36.00;;;;;12.73;78.53;101997.44;4982729;28;45191;-73
2022/11/13 00:06:15;;;;;;;;;45.33;38.67;;;;;12.90;78.29;102025.41;4981314;28;45562;-72
2022/11/13 00:08:40;;;;;;;;;48.00;40.00;;;;;12.78;78.29;102007.72;4995651;28;45560;-74
2022/11/13 00:11:12;;;;;;;;;44.33;37.33;;;;;12.42;78.56;101955.63;4979951;28;45321;-72
2022/11/13 00:13:38;;;;;;;;;49.67;40.00;;;;;12.46;78.71;101952.56;4979541;28;45608;-71
2022/11/13 00:16:07;;;;;;;;;42.00;36.33;;;;;11.98;78.34;101876.59;4980291;28;46449;-72
2022/11/13 00:18:35;;;;;;;;;43.00;36.67;;;;;12.21;78.13;101910.19;4980056;28;45445;-72
2022/11/13 00:21:06;;;;;;;;;44.00;38.00;;;;;12.82;78.27;102005.69;4980270;28;45342;-71
2022/11/13 00:23:35;;;;;;;;;47.33;39.33;;;;;12.56;78.16;101967.78;4980636;28;45330;-73
2022/11/13 00:26:10;;;;;;;;;44.67;35.33;;;;;12.68;78.92;101982.78;4978862;28;47628;-73
2022/11/13 00:28:36;;;;;;;;;43.67;35.67;;;;;12.24;78.28;101906.47;4995500;28;45305;-71
2022/11/13 00:31:04;;;;;;;;;46.33;39.67;;;;;12.06;78.12;101874.16;4979224;28;45513;-73
2022/11/13 00:33:29;;;;;;;;;47.33;39.00;;;;;12.39;78.16;101924.69;4979176;28;45509;-73
2022/11/13 00:36:01;;;;;;;;;37.33;34.00;;;;;12.70;77.99;101976.34;4980125;28;45392;-72
2022/11/13 00:38:27;;;;;;;;;45.67;38.33;;;;;12.18;77.98;101889.13;4980230;28;45382;-75
2022/11/13 00:40:52;;;;;;;;;39.00;32.67;;;;;12.80;77.95;102003.94;4979972;28;45477;-71
2022/11/13 00:43:17;;;;;;;;;39.67;33.00;;;;;11.92;78.40;101853.13;4980079;28;45547;-70
2022/11/13 00:45:43;;;;;;;;;42.67;36.00;;;;;12.73;78.46;101988.59;4978633;28;46676;-73
2022/11/13 00:48:08;;;;;;;;;38.67;33.00;;;;;12.74;78.50;101991.13;4995274;28;45311;-72
2022/11/13 00:50:33;;;;;;;;;38.67;34.00;;;;;12.63;78.21;101964.50;4980354;28;45271;-73
2022/11/13 00:52:59;;;;;;;;;42.00;35.33;;;;;12.60;78.54;101964.75;4980842;28;45319;-75
2022/11/13 00:55:24;;;;;;;;;43.00;35.67;;;;;12.72;78.49;101973.56;4981008;28;46930;-72
2022/11/13 00:57:49;;;;;;;;;40.33;35.33;;;;;12.04;78.28;101865.44;4980978;28;45417;-72
2022/11/13 01:00:15;;;;;;;;;40.00;35.33;;;;;12.10;78.51;101883.59;4979781;28;45477;-74
2022/11/13 01:02:41;;;;;;;;;39.00;33.67;;;;;12.68;78.67;101975.63;4995652;28;45627;-71
2022/11/13 01:05:06;;;;;;;;;39.00;35.00;;;;;12.68;78.48;101966.78;4981115;28;46567;-71
2022/11/13 01:07:35;;;;;;;;;43.00;36.00;;;;;11.82;78.72;101832.56;4980459;28;46028;-72
2022/11/13 01:10:01;;;;;;;;;40.67;34.33;;;;;12.51;78.87;101938.00;4979698;28;45279;-70
2022/11/13 01:12:26;;;;;;;;;46.33;39.00;;;;;12.42;78.76;101920.94;4995575;28;45637;-73
2022/11/13 01:14:51;;;;;;;;;46.00;37.00;;;;;12.35;78.73;101917.91;4980749;28;46344;-74
2022/11/13 01:17:17;;;;;;;;;37.67;34.00;;;;;12.11;78.98;101859.47;4980258;28;45409;-73
2022/11/13 01:19:42;;;;;;;;;46.00;37.67;;;;;12.55;78.76;101931.44;4978807;28;45876;-71
2022/11/13 01:22:07;;;;;;;;;46.00;39.00;;;;;11.96;78.39;101838.56;4979762;28;45164;-71
2022/11/13 01:24:33;;;;;;;;;42.67;36.00;;;;;12.55;78.62;101931.44;4979140;28;45516;-72
2022/11/13 01:26:58;;;;;;;;;45.67;36.67;;;;;11.65;78.83;101777.13;4979251;28;45311;-73
2022/11/13 01:29:23;;;;;;;;;36.33;34.00;;;;;12.51;78.67;101917.50;4979236;28;45526;-72
2022/11/13 01:31:49;;;;;;;;;41.33;35.33;;;;;12.61;78.30;101953.09;4979649;28;45353;-72
2022/11/13 01:34:14;;;;;;;;;43.33;37.00;;;;;12.31;78.55;101895.16;4977679;28;47774;-71
2022/11/13 01:36:39;;;;;;;;;50.00;38.67;;;;;11.74;78.35;101784.34;4977688;28;45406;-73
2022/11/13 01:39:05;;;;;;;;;45.67;37.00;;;;;12.62;78.22;101929.97;4979478;28;45318;-72
2022/11/13 01:41:32;;;;;;;;;46.00;38.00;;;;;12.46;78.14;101901.88;4979437;28;45519;-73
2022/11/13 01:43:58;;;;;;;;;48.67;40.33;;;;;12.53;78.68;101925.38;4978807;28;47031;-73
2022/11/13 01:46:37;;;;;;;;;51.33;43.00;;;;;11.70;79.09;101798.91;4978817;28;45322;-73
2022/11/13 01:49:08;;;;;;;;;52.00;42.33;;;;;12.43;79.21;101925.31;4994543;28;45268;-71
2022/11/13 01:51:41;;;;;;;;;54.33;44.33;;;;;12.17;79.10;101895.44;4979063;28;45271;-72
2022/11/13 01:54:12;;;;;;;;;53.00;44.00;;;;;11.47;78.98;101783.94;4977030;28;46361;-71
2022/11/13 01:56:38;;;;;;;;;58.67;45.67;;;;;11.58;79.19;101821.19;4978618;28;45279;-73
2022/11/13 01:59:11;;;;;;;;;63.50;50.75;;;;;11.45;78.92;101785.88;4978746;28;45478;-70
2022/11/13 02:01:37;;;;;;;;;57.50;47.25;;;;;12.17;79.17;101911.44;4977513;28;45442;-71
2022/11/13 02:04:03;;;;;;;;;58.00;47.00;;;;;11.27;79.44;101765.09;4977995;28;45494;-72
2022/11/13 02:06:38;;;;;;;;;60.67;48.00;;;;;12.10;79.05;101911.09;4978766;28;45458;-71
2022/11/13 02:09:05;;;;;;;;;56.67;44.00;;;;;11.67;79.60;101832.94;4979002;28;45325;-73
2022/11/13 02:11:31;;;;;;;;;59.00;47.00;;;;;11.51;79.13;101814.69;4977907;28;45372;-70
2022/11/13 02:13:57;;;;;;;;;55.67;46.00;;;;;11.49;79.45;101811.28;4977274;28;46359;-73
2022/11/13 02:16:23;;;;;;;;;58.33;47.67;;;;;12.03;79.28;101890.41;4993452;28;45491;-71
2022/11/13 02:18:49;;;;;;;;;58.00;47.00;;;;;11.17;78.91;101769.44;4977209;28;45354;-73
2022/11/13 02:21:31;;;;;;;;;58.50;46.50;;;;;11.91;79.42;101886.91;4978656;28;45622;-71
2022/11/13 02:24:37;;;;;;;;;19.50;15.00;;;;;11.66;79.86;101845.41;4976814;28;47638;-71
2022/11/13 02:27:07;;;;;;;;;59.33;48.00;;;;;11.27;79.29;101783.72;4978132;28;45508;-70
2022/11/13 02:29:32;;;;;;;;;57.25;46.00;;;;;11.44;79.47;101803.69;4978502;28;45326;-72
2022/11/13 02:31:58;;;;;;;;;58.00;47.67;;;;;11.26;79.21;101776.72;4978867;28;45313;-71
2022/11/13 02:34:23;;;;;;;;;59.00;47.25;;;;;11.44;79.01;101802.84;4992615;28;45491;-73
2022/11/13 02:36:49;;;;;;;;;59.75;47.25;;;;;11.98;79.18;101892.59;4978079;28;45244;-73
2022/11/13 02:39:14;;;;;;;;;60.00;47.67;;;;;10.77;79.68;101707.09;4978026;28;45388;-72
2022/11/13 02:41:40;;;;;;;;;56.00;45.33;;;;;11.83;79.78;101879.56;4978299;28;45337;-72
2022/11/13 02:44:06;;;;;;;;;52.00;44.00;;;;;11.81;79.65;101868.19;4977846;28;45664;-71
2022/11/13 02:46:32;;;;;;;;;55.67;45.33;;;;;11.83;79.96;101874.22;4976464;28;46193;-72
2022/11/13 02:48:57;;;;;;;;;46.33;39.33;;;;;11.88;79.97;101876.50;4993102;28;45475;-71
2022/11/13 02:51:22;;;;;;;;;46.00;37.67;;;;;11.48;79.75;101793.63;4978193;28;45553;-72
2022/11/13 02:53:48;;;;;;;;;50.33;40.33;;;;;11.64;80.09;101844.69;4976397;28;47635;-71
2022/11/13 02:56:13;;;;;;;;;41.67;37.00;;;;;11.87;79.87;101877.47;4992654;28;45461;-72
2022/11/13 02:58:39;;;;;;;;;45.00;37.67;;;;;11.90;79.87;101874.56;4978068;28;45234;-72
2022/11/13 03:01:05;;;;;;;;;47.00;37.00;;;;;11.77;79.63;101866.69;4992997;28;45563;-72
2022/11/13 03:03:30;;;;;;;;;39.33;31.00;;;;;11.82;79.86;101877.88;4977651;28;46651;-72
2022/11/13 03:05:56;;;;;;;;;38.67;35.33;;;;;11.66;79.89;101856.06;4977954;28;45306;-71
2022/11/13 03:08:24;;;;;;;;;39.00;33.67;;;;;10.96;79.54;101728.59;4978198;28;45500;-72
2022/11/13 03:10:50;;;;;;;;;37.00;33.00;;;;;11.53;79.44;101832.22;4977791;28;45615;-71
2022/11/13 03:13:16;;;;;;;;;46.67;38.00;;;;;11.48;79.80;101826.44;4992230;28;48286;-73
2022/11/13 03:15:41;;;;;;;;;41.50;34.00;;;;;11.16;80.26;101773.09;4977114;28;59329;-71
2022/11/13 03:18:07;;;;;;;;;39.67;34.00;;;;;10.79;79.59;101713.13;4977488;28;47758;-71
2022/11/13 03:20:36;;;;;;;;;27.00;27.00;;;;;11.28;79.89;101809.38;4977718;28;45303;-72
2022/11/13 03:23:02;;;;;;;;;40.33;34.00;;;;;11.10;79.49;101762.94;4992025;28;45928;-70
2022/11/13 03:25:28;;;;;;;;;39.00;34.00;;;;;11.58;79.47;101843.34;4994695;28;45279;-71
2022/11/13 03:27:53;;;;;;;;;32.00;31.00;;;;;11.81;79.20;101892.16;4981011;28;45380;-72
2022/11/13 03:30:18;;;;;;;;;39.67;33.33;;;;;11.77;78.93;101866.69;4996379;28;45573;-72
2022/11/13 03:32:44;;;;;;;;;38.33;33.33;;;;;11.84;78.69;101875.06;4981022;28;47021;-71
2022/11/13 03:35:09;;;;;;;;;39.33;33.67;;;;;11.83;78.77;101868.91;4980750;28;45239;-72
2022/11/13 03:37:34;;;;;;;;;34.67;30.33;;;;;11.72;78.59;101849.38;4980724;28;45369;-71
2022/11/13 03:40:00;;;;;;;;;31.00;29.67;;;;;10.94;78.77;101726.06;4995767;28;45586;-72
2022/11/13 03:42:25;;;;;;;;;34.67;31.00;;;;;11.27;79.04;101765.09;4981197;28;45978;-72
2022/11/13 03:44:50;;;;;;;;;39.67;34.00;;;;;11.63;78.67;101832.34;4979568;28;45529;-72
2022/11/13 03:47:16;;;;;;;;;33.00;31.33;;;;;11.68;78.94;101846.13;4979429;28;45366;-72
2022/11/13 03:49:41;;;;;;;;;36.00;33.33;;;;;11.47;78.96;101807.91;4996217;28;45445;-72
2022/11/13 03:52:06;;;;;;;;;32.67;31.00;;;;;10.56;78.35;101656.44;4996885;28;48363;-72
2022/11/13 03:54:32;;;;;;;;;36.33;31.67;;;;;11.15;78.64;101766.06;4982865;28;45397;-71
2022/11/13 03:56:57;;;;;;;;;35.00;32.00;;;;;10.62;78.26;101680.75;4979713;28;45506;-71
2022/11/13 03:59:23;;;;;;;;;35.00;33.00;;;;;11.40;78.76;101812.88;4980911;28;45227;-72
2022/11/13 04:01:48;;;;;;;;;33.00;31.67;;;;;11.64;78.45;101846.50;4980343;28;45613;-71
2022/11/13 04:04:14;;;;;;;;;33.00;31.00;;;;;10.18;78.85;101606.25;4978655;28;45426;-71
2022/11/13 04:06:40;;;;;;;;;31.67;30.33;;;;;11.49;78.98;101825.44;4980311;28;45448;-73
2022/11/13 04:09:05;;;;;;;;;30.67;29.33;;;;;11.46;79.05;101807.06;4980539;28;45445;-70
2022/11/13 04:11:31;;;;;;;;;31.33;31.00;;;;;11.63;78.60;101826.16;4994859;28;47077;-72
2022/11/13 04:13:56;;;;;;;;;31.67;30.00;;;;;11.68;78.30;101837.28;4995335;28;45559;-71
2022/11/13 04:16:21;;;;;;;;;29.67;28.33;;;;;11.63;78.39;101824.34;4980731;28;45258;-71
2022/11/13 04:18:47;;;;;;;;;26.00;26.00;;;;;11.66;78.71;101818.78;4980744;28;45241;-70
2022/11/13 04:21:12;;;;;;;;;46.67;37.67;;;;;10.97;78.59;101719.63;4994750;28;47032;-74
2022/11/13 04:23:37;;;;;;;;;36.33;32.67;;;;;11.62;78.76;101825.31;4980105;28;45220;-70
2022/11/13 04:26:04;;;;;;;;;32.67;31.67;;;;;10.81;78.73;101698.75;4980335;28;45259;-70
2022/11/13 04:28:29;;;;;;;;;36.00;33.67;;;;;11.66;78.75;101829.41;4980393;28;45363;-72
2022/11/13 04:30:55;;;;;;;;;38.67;33.33;;;;;11.67;78.62;101825.78;4979786;28;45553;-72
2022/11/13 04:33:21;;;;;;;;;38.00;33.00;;;;;11.13;78.03;101729.91;4979670;28;45567;-72
2022/11/13 04:35:47;;;;;;;;;42.33;35.33;;;;;11.66;78.50;101837.41;4993845;28;45319;-71
2022/11/13 04:38:13;;;;;;;;;44.33;37.00;;;;;11.65;78.13;101832.22;4995097;28;45320;-72
2022/11/13 04:40:39;;;;;;;;;45.67;38.33;;;;;11.44;78.34;101803.69;4979630;28;45365;-72
2022/11/13 04:43:05;;;;;;;;;45.67;36.67;;;;;10.18;77.62;101600.94;4979715;28;45239;-71
2022/11/13 04:45:30;;;;;;;;;43.00;35.33;;;;;11.60;77.96;101824.56;4994695;28;45507;-72
2022/11/13 04:47:55;;;;;;;;;38.33;35.33;;;;;11.53;77.91;101823.38;4979861;28;45239;-73
2022/11/13 04:50:21;;;;;;;;;35.33;33.33;;;;;11.04;77.43;101738.66;4979773;28;45800;-70
2022/11/13 04:52:47;;;;;;;;;47.00;37.00;;;;;11.48;77.96;101814.94;4994873;28;45322;-71
2022/11/13 04:55:12;;;;;;;;;47.67;37.67;;;;;10.71;77.42;101680.97;4995773;28;45269;-70
2022/11/13 04:57:39;;;;;;;;;46.67;39.00;;;;;11.51;77.39;101828.00;4982089;28;45456;-72
2022/11/13 05:00:06;;;;;;;;;47.00;37.33;;;;;11.57;77.07;101836.31;4998912;28;47125;-71
2022/11/13 05:02:32;;;;;;;;;39.33;34.00;;;;;11.18;77.54;101765.81;4980712;28;45441;-71
2022/11/13 05:04:57;;;;;;;;;42.67;37.00;;;;;11.58;77.32;101829.19;4979092;28;45450;-72
2022/11/13 05:07:22;;;;;;;;;45.67;37.33;;;;;11.41;77.21;101782.63;4994808;28;45467;-72
2022/11/13 05:09:48;;;;;;;;;47.00;39.33;;;;;11.60;77.28;101824.56;4979942;28;46562;-71
2022/11/13 05:12:14;;;;;;;;;42.00;36.33;;;;;11.57;77.16;101814.16;4979563;28;45635;-71
2022/11/13 05:14:39;;;;;;;;;42.33;37.67;;;;;11.57;77.15;101812.34;4979500;28;45326;-73
2022/11/13 05:17:07;;;;;;;;;40.00;33.67;;;;;11.63;77.27;101803.03;4979429;28;45270;-72
2022/11/13 05:19:33;;;;;;;;;43.67;36.33;;;;;10.75;76.94;101666.47;4978966;28;46489;-72
2022/11/13 05:21:59;;;;;;;;;43.67;35.33;;;;;11.52;77.10;101803.91;4979286;28;45263;-72
2022/11/13 05:24:27;;;;;;;;;40.00;36.00;;;;;11.17;76.77;101748.16;4979495;28;45560;-73
2022/11/13 05:26:52;;;;;;;;;38.33;34.67;;;;;11.24;76.94;101765.34;4979223;28;45592;-73
2022/11/13 05:29:18;;;;;;;;;42.67;36.33;;;;;10.63;76.80;101668.31;4978792;28;45389;-71
2022/11/13 05:31:44;;;;;;;;;39.33;33.33;;;;;11.36;77.11;101790.13;4979069;28;45282;-71
2022/11/13 05:34:09;;;;;;;;;43.67;36.33;;;;;11.57;76.90;101811.50;4979195;28;45571;-71
2022/11/13 05:36:34;;;;;;;;;33.67;31.33;;;;;11.52;76.69;101806.56;4979368;28;45558;-74
2022/11/13 05:39:00;;;;;;;;;39.00;35.00;;;;;11.59;76.38;101812.22;4978768;28;46113;-72
2022/11/13 05:41:26;;;;;;;;;37.00;34.33;;;;;11.42;76.42;101780.81;4978756;28;45227;-73
2022/11/13 05:43:51;;;;;;;;;39.33;34.00;;;;;11.55;76.10;101797.47;4993937;28;45257;-70
2022/11/13 05:46:20;;;;;;;;;40.33;35.00;;;;;11.56;76.00;101801.81;4979167;28;45438;-72
2022/11/13 05:48:46;;;;;;;;;40.00;33.33;;;;;11.53;76.09;101802.06;4978467;28;45791;-72
2022/11/13 05:51:17;;;;;;;;;35.33;33.33;;;;;11.43;76.34;101809.97;4977118;28;45423;-72
2022/11/13 05:53:44;;;;;;;;;36.67;31.67;;;;;11.40;76.39;101796.03;4978716;28;45337;-72
2022/11/13 05:56:12;;;;;;;;;34.67;30.67;;;;;11.12;76.72;101739.72;4979013;28;45429;-71
2022/11/13 05:58:39;;;;;;;;;29.67;26.67;;;;;11.13;76.74;101740.56;4978280;28;45756;-72
2022/11/13 06:01:19;;;;;;;;;32.67;28.67;;;;;10.95;76.53;101710.94;4978266;28;45260;-71
2022/11/13 06:03:45;;;;;;;;;32.33;26.67;;;;;11.07;77.00;101733.91;4977928;28;45422;-72
2022/11/13 06:06:14;;;;;;;;;27.00;24.67;;;;;10.76;76.80;101706.22;4993333;28;45382;-73
2022/11/13 06:08:39;;;;;;;;;25.67;25.00;;;;;11.17;76.75;101769.44;4976937;28;45520;-73
2022/11/13 06:11:07;;;;;;;;;29.33;28.00;;;;;10.96;76.69;101734.75;4977985;28;45247;-72
2022/11/13 06:13:33;;;;;;;;;30.00;22.67;;;;;10.62;76.96;101679.91;4993541;28;45254;-72
2022/11/13 06:16:04;;;;;;;;;32.67;24.67;;;;;11.17;76.88;101769.44;4978228;28;45551;-72
2022/11/13 06:18:30;;;;;;;;;27.00;26.67;;;;;10.93;76.47;101728.84;4977763;28;47071;-72
2022/11/13 06:21:18;;;;;;;;;26.33;25.00;;;;;11.13;76.99;101757.38;4976659;28;45289;-72
2022/11/13 06:23:45;;;;;;;;;19.33;18.00;;;;;10.62;76.37;101667.47;4978295;28;45551;-72
2022/11/13 06:26:16;;;;;;;;;30.00;27.00;;;;;11.10;76.35;101746.13;4976994;28;45630;-70
2022/11/13 06:28:43;;;;;;;;;32.33;26.67;;;;;10.83;76.33;101704.78;4981922;28;46318;-72
2022/11/13 06:31:14;;;;;;;;;18.00;15.67;;;;;10.07;76.76;101593.84;4979631;28;45279;-72
2022/11/13 06:33:40;;;;;;;;;22.33;22.33;;;;;10.95;76.43;101742.88;4976435;28;45407;-72
2022/11/13 06:36:26;;;;;;;;;28.33;24.00;;;;;10.72;76.56;101712.78;4978137;28;45514;-72
2022/11/13 06:38:52;;;;;;;;;27.67;24.00;;;;;10.65;76.69;101699.13;4992603;28;48758;-72
2022/11/13 06:41:28;;;;;;;;;25.00;20.33;;;;;10.83;76.75;101728.75;4977681;28;45584;-72
2022/11/13 06:43:54;;;;;;;;;25.67;23.33;;;;;10.11;77.00;101602.41;4977953;28;45271;-71
2022/11/13 06:46:24;;;;;;;;;29.33;27.00;;;;;10.62;76.54;101696.72;4978213;28;45451;-71
2022/11/13 06:48:50;;;;;;;;;29.00;24.00;;;;;10.57;76.62;101696.19;4978093;28;46321;-72
2022/11/13 06:51:24;;;;;;;;;29.00;25.67;;;;;10.52;76.63;101687.75;4977926;28;45333;-73
2022/11/13 06:53:50;;;;;;;;;27.00;23.00;;;;;10.86;76.41;101746.28;4976818;28;45256;-72
2022/11/13 06:56:16;;;;;;;;;25.67;23.67;;;;;10.55;76.52;101682.19;4992878;28;45525;-72
2022/11/13 06:58:42;;;;;;;;;24.67;23.33;;;;;10.88;76.18;101742.50;4977131;28;46060;-72
2022/11/13 07:01:17;;;;;;;;;22.33;21.33;;;;;10.84;76.51;101729.59;4977678;28;45318;-73
2022/11/13 07:03:42;;;;;;;;;20.67;20.33;;;;;10.76;75.87;101721.34;4977738;28;45352;-73
2022/11/13 07:06:13;;;;;;;;;25.00;22.00;;;;;9.61;75.72;101514.22;4976103;28;45624;-72
2022/11/13 07:08:40;;;;;;;;;23.00;22.00;;;;;10.74;75.63;101697.53;4977825;28;46540;-71
2022/11/13 07:11:08;;;;;;;;;23.00;21.67;;;;;10.88;75.68;101720.38;4976048;28;45487;-70
2022/11/13 07:13:35;;;;;;;;;23.33;22.00;;;;;10.63;74.80;101684.25;4978869;28;45465;-71
2022/11/13 07:16:02;;;;;;;;;26.33;23.33;;;;;10.11;75.27;101607.72;4978656;28;45373;-72
2022/11/13 07:18:29;;;;;;;;;25.00;23.67;;;;;10.25;75.53;101621.66;4977344;28;45385;-71
2022/11/13 07:20:54;;;;;;;;;23.67;23.67;;;;;10.88;75.08;101736.34;4992354;28;45429;-71
2022/11/13 07:23:20;;;;;;;;;25.00;22.67;;;;;10.62;75.33;101686.06;4977492;28;45259;-71
2022/11/13 07:25:45;;;;;;;;;26.67;18.67;;;;;10.90;74.93;101724.63;4978026;28;45463;-71
2022/11/13 07:28:10;;;;;;;;;26.00;25.00;;;;;10.81;74.67;101705.88;4993104;28;47572;-73
2022/11/13 07:30:36;;;;;;;;;20.67;20.67;;;;;10.85;74.76;101732.13;4977357;28;45535;-73
2022/11/13 07:33:02;;;;;;;;;25.00;21.00;;;;;11.00;74.88;101750.47;4976094;28;45296;-76
2022/11/13 07:35:28;;;;;;;;;27.33;23.33;;;;;10.59;74.43;101667.66;4977569;28;45526;-71
2022/11/13 07:37:57;;;;;;;;;25.33;23.33;;;;;11.05;74.53;101737.66;4977067;28;45545;-71
2022/11/13 07:40:23;;;;;;;;;22.67;21.00;;;;;11.00;74.05;101735.34;4992451;28;45864;-71
2022/11/13 07:42:59;;;;;;;;;26.00;23.00;;;;;10.80;74.14;101691.72;4977505;28;45294;-72
2022/11/13 07:45:25;;;;;;;;;24.67;23.00;;;;;10.70;73.91;101658.00;4976205;28;45379;-72
2022/11/13 07:47:50;;;;;;;;;24.67;22.67;;;;;11.18;73.49;101731.22;4977011;28;46802;-71
2022/11/13 07:50:16;;;;;;;;;21.33;18.67;;;;;10.31;73.05;101561.84;4977021;28;45734;-71
2022/11/13 07:52:41;;;;;;;;;27.33;23.00;;;;;10.55;73.28;101602.41;4976301;28;45265;-72
2022/11/13 07:55:07;;;;;;;;;27.67;25.33;;;;;11.48;72.94;101733.22;4976717;28;45463;-72
2022/11/13 07:57:32;;;;;;;;;23.00;22.00;;;;;10.99;72.32;101621.91;4977399;28;46700;-73
2022/11/13 07:59:58;;;;;;;;;24.67;23.67;;;;;11.72;72.36;101734.81;4976910;28;54970;-70
2022/11/13 08:02:23;;;;;;;;;29.67;27.33;;;;;11.66;71.65;101706.88;4977406;28;45536;-71
2022/11/13 08:04:48;;;;;;;;;29.33;26.00;;;;;11.49;71.58;101667.50;4975819;28;45495;-74
2022/11/13 08:07:14;;;;;;;;;26.33;24.67;;;;;11.48;71.46;101650.66;4977086;28;45408;-73
2022/11/13 08:09:39;;;;;;;;;33.00;29.00;;;;;11.52;71.60;101613.97;4977169;28;45309;-72
2022/11/13 08:12:05;;;;;;;;;25.33;23.67;;;;;11.66;70.59;101626.97;4980534;28;45331;-73
2022/11/13 08:14:30;;;;;;;;;24.67;23.33;;;;;11.76;69.73;101587.06;4981899;28;45308;-71
2022/11/13 08:16:55;;;;;;;;;22.67;22.67;;;;;12.90;68.82;101717.63;4978510;28;47038;-73
2022/11/13 08:19:21;;;;;;;;;27.00;23.67;;;;;12.80;67.63;101634.84;4979937;28;45303;-72
2022/11/13 08:21:46;;;;;;;;;25.33;21.00;;;;;13.67;66.29;101720.47;4980460;28;45295;-72
2022/11/13 08:24:12;;;;;;;;;25.67;24.67;;;;;13.84;65.25;101690.38;4980658;28;45494;-72
2022/11/13 08:26:37;;;;;;;;;25.00;24.00;;;;;13.33;64.35;101551.75;4980698;28;46733;-71
2022/11/13 08:29:03;;;;;;;;;26.67;24.33;;;;;13.69;63.14;101567.00;4979082;28;46046;-74
2022/11/13 08:31:29;;;;;;;;;22.33;21.67;;;;;14.80;62.31;101699.13;4980347;28;45468;-72
2022/11/13 08:33:54;;;;;;;;;23.67;22.33;;;;;14.21;61.26;101570.06;4995072;28;45270;-72
2022/11/13 08:36:19;;;;;;;;;22.33;22.33;;;;;15.31;60.20;101701.22;4978740;28;46119;-74
2022/11/13 08:38:47;;;;;;;;;22.00;20.00;;;;;15.59;57.79;101600.19;4979403;28;45506;-73
2022/11/13 08:41:12;;;;;;;;;22.67;22.67;;;;;16.77;56.17;101633.56;4977609;28;45254;-71
2022/11/13 08:43:37;;;;;;;;;30.00;25.33;;;;;17.10;54.00;101686.41;4980565;28;45456;-72
2022/11/13 08:46:03;;;;;;;;;24.00;21.67;;;;;17.11;53.98;101626.28;4978449;28;45830;-73
2022/11/13 08:48:28;;;;;;;;;23.33;20.33;;;;;18.38;50.83;101653.47;4979612;28;45261;-77
2022/11/13 08:50:55;;;;;;;;;26.67;25.67;;;;;19.43;48.90;101645.91;4979996;28;45445;-72
2022/11/13 08:53:22;;;;;;;;;29.67;25.67;;;;;20.09;45.90;101601.13;4980197;28;45385;-74
2022/11/13 08:55:48;;;;;;;;;19.00;18.00;;;;;21.17;44.86;101671.53;4977605;28;46049;-70
2022/11/13 08:58:13;;;;;;;;;22.00;22.00;;;;;21.78;42.62;101668.44;4978602;28;45330;-71
2022/11/13 09:00:39;;;;;;;;;28.00;23.00;;;;;22.13;41.27;101667.50;4979451;28;45289;-73
2022/11/13 09:03:04;;;;;;;;;23.33;22.00;;;;;22.06;41.81;101611.63;4982306;28;45420;-70
2022/11/13 09:05:30;;;;;;;;;24.00;20.33;;;;;20.25;42.09;101370.59;4979772;28;46778;-71
2022/11/13 09:07:57;;;;;;;;;26.33;25.67;;;;;20.77;42.48;101602.66;4995014;28;45338;-71
2022/11/13 09:10:23;;;;;;;;;22.33;22.00;;;;;20.36;44.42;101650.94;4979469;28;45444;-72
2022/11/13 09:12:55;;;;;;;;;21.33;21.33;;;;;19.54;46.10;101645.50;4979383;28;45318;-70
2022/11/13 09:15:20;;;;;;;;;25.33;22.67;;;;;19.04;47.82;101649.53;4980789;28;46519;-69
2022/11/13 09:17:46;;;;;;;;;25.33;23.33;;;;;18.44;48.06;101628.56;4980532;28;45495;-70
2022/11/13 09:20:11;;;;;;;;;23.00;22.00;;;;;17.80;49.53;101646.50;4979678;28;45175;-71
2022/11/13 09:22:36;;;;;;;;;21.33;21.33;;;;;17.42;51.18;101657.88;4979146;28;45445;-71
2022/11/13 09:25:02;;;;;;;;;24.00;22.00;;;;;16.96;51.83;101641.34;4979845;28;45620;-71
2022/11/13 09:27:30;;;;;;;;;25.67;22.00;;;;;16.61;52.81;101639.69;4980632;28;45527;-73
2022/11/13 09:29:55;;;;;;;;;27.67;25.33;;;;;16.15;53.88;101622.19;4994922;28;45412;-72
2022/11/13 09:32:21;;;;;;;;;21.67;21.67;;;;;16.04;54.76;101629.50;4979508;28;45340;-71
2022/11/13 09:34:46;;;;;;;;;14.00;14.00;;;;;15.51;55.35;101566.09;4979107;28;45237;-72
2022/11/13 09:37:13;;;;;;;;;28.67;27.00;;;;;15.10;55.94;101513.19;4976260;28;45613;-71
2022/11/13 09:39:39;;;;;;;;;27.33;27.33;;;;;15.50;56.50;101606.44;4959255;28;45611;-70
2022/11/13 09:42:16;;;;;;;;;24.33;21.00;;;;;15.56;56.52;101637.97;4959669;28;45282;-71
2022/11/13 09:44:43;;;;;;;;;25.00;23.67;;;;;15.49;57.43;101643.13;4958233;28;47865;-71
2022/11/13 09:47:37;;;;;;;;;25.00;21.67;;;;;14.62;57.82;101535.84;4959949;28;45272;-71
2022/11/13 09:50:21;;;;;;;;;28.00;26.67;;;;;15.06;58.58;101645.72;4974002;28;45685;-72
2022/11/13 09:52:47;;;;;;;;;29.33;27.00;;;;;14.91;59.19;101646.22;4976677;28;45346;-72
2022/11/13 09:55:15;;;;;;;;;29.67;26.67;;;;;14.82;59.47;101644.47;4975691;28;46478;-72
2022/11/13 09:57:56;;;;;;;;;30.00;26.67;;;;;14.69;59.98;101641.28;4978676;28;45479;-71
2022/11/13 10:00:22;;;;;;;;;28.33;26.00;;;;;14.49;60.27;101620.97;4977873;28;45464;-73
2022/11/13 10:03:17;;;;;;;;;24.67;24.67;;;;;14.50;60.42;101638.69;4977513;28;45581;-71
2022/11/13 10:06:13;;;;;;;;;32.33;27.33;;;;;14.41;60.74;101629.66;4978160;28;46522;-70
2022/11/13 10:09:00;;;;;;;;;28.67;26.67;;;;;14.30;61.30;101622.69;4978905;28;45495;-73
2022/11/13 10:11:43;;;;;;;;;29.67;27.67;;;;;14.22;61.14;101606.53;4978296;28;45476;-71
2022/11/13 10:14:28;;;;;;;;;30.00;29.67;;;;;14.17;61.75;101616.81;4983885;28;45220;-70
2022/11/13 10:17:18;;;;;;;;;27.33;25.33;;;;;13.82;61.74;101568.53;4978489;28;45637;-73
2022/11/13 10:19:58;;;;;;;;;27.00;27.00;;;;;13.14;62.38;101452.94;4978390;28;45393;-72
2022/11/13 10:22:43;;;;;;;;;31.67;30.33;;;;;13.93;62.05;101598.59;4978453;28;45575;-75
2022/11/13 10:25:14;;;;;;;;;29.33;26.67;;;;;14.05;62.31;101617.16;4978637;28;45294;-72
2022/11/13 10:27:39;;;;;;;;;29.67;27.00;;;;;13.94;63.02;101610.13;4978015;28;46070;-71
2022/11/13 10:30:16;;;;;;;;;29.67;28.67;;;;;13.30;63.36;101509.31;4987766;28;45569;-70
2022/11/13 10:32:43;;;;;;;;;29.67;29.33;;;;;13.91;63.41;101605.94;4959288;28;45532;-72
2022/11/13 10:35:24;;;;;;;;;31.33;29.00;;;;;13.90;63.53;101598.06;4956758;28;45373;-76
2022/11/13 10:38:14;;;;;;;;;32.00;30.00;;;;;13.88;63.29;101600.88;4958166;28;46839;-73
2022/11/13 10:40:39;;;;;;;;;29.33;28.67;;;;;13.62;63.80;101557.06;4973313;28;45484;-71
2022/11/13 10:43:17;;;;;;;;;29.33;29.00;;;;;13.62;63.66;101549.03;4974389;28;45288;-70
2022/11/13 10:46:02;;;;;;;;;30.00;28.00;;;;;13.85;63.92;101605.66;4978000;28;45422;-72
2022/11/13 10:48:35;;;;;;;;;27.67;26.33;;;;;13.78;63.95;101588.50;4977961;28;45859;-69
2022/11/13 10:51:03;;;;;;;;;28.33;28.33;;;;;13.85;64.15;101600.31;4977949;28;45443;-69
2022/11/13 10:53:38;;;;;;;;;30.33;28.67;;;;;13.24;63.96;101496.53;4977988;28;45433;-71
2022/11/13 10:56:23;;;;;;;;;28.00;26.67;;;;;13.83;64.35;101586.25;4976532;28;45472;-71
2022/11/13 10:59:00;;;;;;;;;32.67;30.00;;;;;13.82;64.20;101579.25;4991271;28;48534;-70
2022/11/13 11:01:26;;;;;;;;;30.67;30.00;;;;;13.75;64.61;101576.28;4975856;28;45291;-70
2022/11/13 11:03:51;;;;;;;;;28.33;27.00;;;;;13.62;64.71;101547.22;4977224;28;45159;-78
2022/11/13 11:06:17;;;;;;;;;35.00;32.00;;;;;13.72;64.70;101563.22;4976717;28;45253;-72
2022/11/13 11:08:42;;;;;;;;;30.67;28.67;;;;;13.03;64.65;101432.59;4976310;28;47789;-72
2022/11/13 11:14:19;;;;;;;;;30.67;30.00;;;;;13.81;65.20;101551.63;4979005;28;45283;-73
2022/11/13 11:16:47;;;;;;;;;33.00;31.00;;;;;13.86;64.88;101553.91;4978761;28;45513;-75